Time;durP1;ratioP1;P1;durP2;ratioP2;P2;SDS_P1;SDS_P2;PMS_P1;PMS_P2;Temp;Humidity;BMP_temperature;BMP_pressure;BME280_temperature;BME280_humidity;BME280_pressure;Samples;Min_cycle;Max_cycle;Signal;HPM_P1;HPM_P2
2024/04/12 00:01:12;;;;;;;20.60;11.77;;;13.70;99.90;;;;;;5209932;27;20559;-85
2024/04/12 00:03:47;;;;;;;18.90;11.67;;;13.70;99.90;;;;;;5209521;27;20250;-86
2024/04/12 00:06:16;;;;;;;21.40;11.80;;;13.70;99.90;;;;;;5209638;27;20237;-85
2024/04/12 00:08:47;;;;;;;21.10;11.83;;;13.70;99.90;;;;;;5230610;27;20241;-85
2024/04/12 00:11:13;;;;;;;20.33;11.47;;;13.70;99.90;;;;;;5228664;27;20911;-86
2024/04/12 00:13:43;;;;;;;18.17;10.80;;;13.70;99.90;;;;;;5241106;27;20321;-86
2024/04/12 00:16:10;;;;;;;18.53;11.27;;;13.70;99.90;;;;;;5226884;27;20260;-86
2024/04/12 00:18:38;;;;;;;20.60;12.07;;;13.70;99.90;;;;;;5242782;27;20791;-86
2024/04/12 00:21:05;;;;;;;17.80;10.53;;;13.70;99.90;;;;;;5241935;27;20799;-86
2024/04/12 00:23:39;;;;;;;21.03;11.83;;;13.70;99.90;;;;;;5246850;27;20827;-89
2024/04/12 00:26:06;;;;;;;22.97;12.40;;;13.70;99.90;;;;;;5230291;27;20764;-87
2024/04/12 00:28:36;;;;;;;19.20;10.90;;;13.70;99.90;;;;;;5220259;27;20252;-88
2024/04/12 00:31:06;;;;;;;18.93;11.77;;;13.70;99.90;;;;;;5234029;27;20249;-88
2024/04/12 00:33:36;;;;;;;18.57;10.80;;;13.70;99.90;;;;;;5231385;27;20306;-87
2024/04/12 00:36:08;;;;;;;21.77;11.87;;;13.70;99.90;;;;;;5232684;27;20327;-87
2024/04/12 00:38:41;;;;;;;23.30;12.60;;;13.70;99.90;;;;;;5227607;27;20744;-88
2024/04/12 00:41:11;;;;;;;21.60;12.77;;;13.70;99.90;;;;;;5233722;27;22368;-88
2024/04/12 00:43:48;;;;;;;21.90;13.03;;;13.70;99.90;;;;;;5214738;27;20674;-88
2024/04/12 00:46:15;;;;;;;22.40;13.27;;;13.60;99.90;;;;;;5229535;27;20279;-89
2024/04/12 00:48:45;;;;;;;19.40;12.47;;;13.60;99.90;;;;;;5226310;27;20252;-88
2024/04/12 00:51:16;;;;;;;22.67;12.13;;;13.60;99.90;;;;;;5222418;27;20248;-88
2024/04/12 00:53:48;;;;;;;23.63;12.17;;;13.70;99.90;;;;;;5219998;27;20362;-88
2024/04/12 00:56:15;;;;;;;21.87;12.47;;;13.60;99.90;;;;;;5227273;27;20295;-88
2024/04/12 00:58:47;;;;;;;22.10;12.80;;;13.60;99.90;;;;;;5222088;27;20322;-89
2024/04/12 01:01:15;;;;;;;25.23;13.93;;;13.60;99.90;;;;;;5230834;27;20277;-88
2024/04/12 01:03:49;;;;;;;21.97;13.07;;;13.60;99.90;;;;;;5235314;27;20253;-88
2024/04/12 01:06:20;;;;;;;21.07;12.63;;;13.60;99.90;;;;;;5229835;27;20250;-86
2024/04/12 01:08:52;;;;;;;24.07;13.37;;;13.60;99.90;;;;;;5228455;27;20281;-87
2024/04/12 01:11:20;;;;;;;23.53;13.27;;;13.60;99.90;;;;;;5234163;27;20818;-89
2024/04/12 01:13:48;;;;;;;22.97;12.90;;;13.60;99.90;;;;;;5231774;27;20668;-86
2024/04/12 01:16:15;;;;;;;24.77;14.30;;;13.60;99.90;;;;;;5234240;27;20319;-88
2024/04/12 01:18:44;;;;;;;25.67;13.80;;;13.60;99.90;;;;;;5226875;27;20249;-87
2024/04/12 01:21:11;;;;;;;25.43;13.83;;;13.60;99.90;;;;;;5228250;27;20237;-87
2024/04/12 01:23:42;;;;;;;26.97;14.20;;;13.60;99.90;;;;;;5226226;27;20250;-87
2024/04/12 01:26:11;;;;;;;22.90;14.00;;;13.60;99.90;;;;;;5235384;27;20288;-89
2024/04/12 01:28:42;;;;;;;25.67;14.07;;;13.50;99.90;;;;;;5224981;27;20266;-88
2024/04/12 01:31:08;;;;;;;23.77;12.87;;;13.50;99.90;;;;;;5229178;27;20315;-88
2024/04/12 01:33:37;;;;;;;24.63;14.33;;;13.60;99.90;;;;;;5238196;27;20295;-88
2024/04/12 01:36:05;;;;;;;20.73;13.30;;;13.50;99.90;;;;;;5236151;27;20248;-87
2024/04/12 01:38:36;;;;;;;25.53;14.43;;;13.50;99.90;;;;;;5224745;27;20256;-89
2024/04/12 01:41:05;;;;;;;26.07;13.57;;;13.60;99.90;;;;;;5221367;27;20249;-90
2024/04/12 01:43:38;;;;;;;25.33;13.77;;;13.60;99.90;;;;;;5227642;27;20253;-86
2024/04/12 01:46:07;;;;;;;26.33;14.30;;;13.60;99.90;;;;;;5236540;27;20883;-88
2024/04/12 01:48:36;;;;;;;21.27;13.03;;;13.50;99.90;;;;;;5225533;27;20254;-87
2024/04/12 01:51:03;;;;;;;24.57;13.47;;;13.60;99.90;;;;;;5227933;27;20283;-88
2024/04/12 01:53:36;;;;;;;26.93;14.77;;;13.60;99.90;;;;;;5230921;27;20262;-88
2024/04/12 01:56:04;;;;;;;25.23;14.43;;;13.60;99.90;;;;;;5239469;27;20284;-86
2024/04/12 01:58:34;;;;;;;26.67;14.60;;;13.60;99.90;;;;;;5230561;27;21036;-88
2024/04/12 02:01:02;;;;;;;24.50;13.30;;;13.60;99.90;;;;;;5230560;27;20256;-87
2024/04/12 02:03:32;;;;;;;28.47;15.27;;;13.70;99.90;;;;;;5232437;27;20725;-88
2024/04/12 02:06:03;;;;;;;25.63;15.10;;;13.70;99.90;;;;;;5230036;27;20870;-87
2024/04/12 02:08:32;;;;;;;27.13;14.67;;;13.70;99.90;;;;;;5224698;27;20248;-87
2024/04/12 02:10:58;;;;;;;27.47;15.67;;;13.60;99.90;;;;;;5230921;27;20253;-88
2024/04/12 02:13:35;;;;;;;25.37;15.20;;;13.70;99.90;;;;;;5229607;27;20771;-87
2024/04/12 02:16:04;;;;;;;28.23;16.73;;;13.60;99.90;;;;;;5224706;27;20638;-86
2024/04/12 02:18:35;;;;;;;24.27;16.20;;;13.70;99.90;;;;;;5224176;27;20675;-86
2024/04/12 02:21:05;;;;;;;27.80;15.77;;;13.70;99.90;;;;;;5237069;27;20358;-87
2024/04/12 02:23:37;;;;;;;27.13;16.67;;;13.70;99.90;;;;;;5234690;27;20252;-88
2024/04/12 02:26:03;;;;;;;31.37;17.13;;;13.70;99.90;;;;;;5239505;27;20287;-88
2024/04/12 02:28:36;;;;;;;27.30;16.93;;;13.70;99.90;;;;;;5228274;27;20295;-88
2024/04/12 02:31:08;;;;;;;28.17;17.73;;;13.70;99.90;;;;;;5226147;27;20248;-88
2024/04/12 02:33:38;;;;;;;31.90;18.90;;;13.70;99.90;;;;;;5231357;27;20261;-88
2024/04/12 02:36:11;;;;;;;28.13;18.03;;;13.70;99.90;;;;;;5230916;27;20302;-87
2024/04/12 02:38:40;;;;;;;30.00;18.60;;;13.70;99.90;;;;;;5230424;27;20619;-87
2024/04/12 02:41:13;;;;;;;30.87;19.73;;;13.80;99.90;;;;;;5231814;27;20248;-86
2024/04/12 02:43:42;;;;;;;29.97;19.50;;;13.80;99.90;;;;;;5222781;27;20260;-87
2024/04/12 02:46:11;;;;;;;34.93;19.93;;;13.80;99.90;;;;;;5225298;27;20252;-89
2024/04/12 02:48:43;;;;;;;31.70;20.10;;;13.70;99.90;;;;;;5229858;27;20254;-88
2024/04/12 02:51:13;;;;;;;29.17;18.83;;;13.70;99.90;;;;;;5233619;27;20287;-87
2024/04/12 02:53:42;;;;;;;30.87;19.57;;;13.70;99.90;;;;;;5229018;27;20256;-89
2024/04/12 02:56:11;;;;;;;34.07;20.40;;;13.70;99.90;;;;;;5230279;27;20259;-88
2024/04/12 02:58:41;;;;;;;31.33;20.90;;;13.80;99.90;;;;;;5230061;27;20319;-89
2024/04/12 03:01:10;;;;;;;33.03;20.80;;;13.70;99.90;;;;;;5230220;27;20854;-90
2024/04/12 03:03:41;;;;;;;35.40;20.40;;;13.70;99.90;;;;;;5231451;27;20307;-88
2024/04/12 03:06:09;;;;;;;29.47;19.30;;;13.70;99.90;;;;;;5230565;27;20256;-88
2024/04/12 03:08:38;;;;;;;34.47;19.67;;;13.70;99.90;;;;;;5230596;27;20969;-90
2024/04/12 03:11:14;;;;;;;33.67;21.73;;;13.80;99.90;;;;;;5237921;27;20379;-88
2024/04/12 03:13:44;;;;;;;30.33;20.20;;;13.80;99.90;;;;;;5239706;27;20247;-90
2024/04/12 03:16:13;;;;;;;36.30;20.60;;;13.80;99.90;;;;;;5237008;27;20332;-88
2024/04/12 03:18:44;;;;;;;27.80;18.57;;;13.70;99.90;;;;;;5224430;27;20248;-90
2024/04/12 03:21:12;;;;;;;28.53;19.40;;;13.80;99.90;;;;;;5249637;27;20247;-89
2024/04/12 03:23:43;;;;;;;29.87;19.27;;;13.70;99.90;;;;;;5238849;27;20309;-89
2024/04/12 03:26:10;;;;;;;28.03;19.67;;;13.80;99.90;;;;;;5247594;27;20260;-88
2024/04/12 03:28:39;;;;;;;32.03;19.43;;;13.80;99.90;;;;;;5238718;27;20292;-90
2024/04/12 03:31:07;;;;;;;29.93;18.93;;;13.80;99.90;;;;;;5244807;27;20253;-89
2024/04/12 03:33:42;;;;;;;31.13;20.03;;;13.80;99.90;;;;;;5254671;27;20249;-88
2024/04/12 03:36:26;;;;;;;34.23;19.20;;;13.70;99.90;;;;;;5239228;27;20244;-90
2024/04/12 03:39:24;;;;;;;27.10;19.47;;;13.80;99.90;;;;;;5240519;27;20252;-88
2024/04/12 03:41:44;;;;;;;29.40;18.67;;;13.80;99.90;;;;;;5249793;27;20806;-89
2024/04/12 03:44:13;;;;;;;25.83;17.07;;;13.80;99.90;;;;;;5244286;27;20737;-88
2024/04/12 03:46:40;;;;;;;26.57;17.97;;;13.80;99.90;;;;;;5243778;27;20304;-90
2024/04/12 03:49:13;;;;;;;30.27;18.63;;;13.70;99.90;;;;;;5239365;27;20791;-89
2024/04/12 03:51:44;;;;;;;26.17;17.67;;;13.70;99.90;;;;;;5237963;27;20336;-88
2024/04/12 03:54:17;;;;;;;26.63;18.07;;;13.70;99.90;;;;;;5252041;27;20255;-90
2024/04/12 03:56:44;;;;;;;26.90;17.63;;;13.70;99.90;;;;;;5233509;27;20256;-89
2024/04/12 03:59:13;;;;;;;29.17;18.23;;;13.70;99.90;;;;;;5234699;27;20244;-88
2024/04/12 04:01:44;;;;;;;26.43;18.20;;;13.70;99.90;;;;;;5234027;27;20342;-87
2024/04/12 04:04:19;;;;;;;26.00;18.10;;;13.70;99.90;;;;;;5239461;27;20370;-88
2024/04/12 04:06:48;;;;;;;25.07;16.73;;;13.70;99.90;;;;;;5234095;27;20255;-88
2024/04/12 04:09:19;;;;;;;28.43;17.83;;;13.80;99.90;;;;;;5230420;27;20257;-88
2024/04/12 04:11:48;;;;;;;29.27;18.20;;;13.70;99.90;;;;;;5233793;27;20356;-89
2024/04/12 04:14:19;;;;;;;27.83;17.33;;;13.70;99.90;;;;;;5226071;27;20252;-89
2024/04/12 04:16:49;;;;;;;30.50;17.83;;;13.70;99.90;;;;;;5228491;27;20350;-90
2024/04/12 04:19:19;;;;;;;26.57;17.20;;;13.70;99.90;;;;;;5232926;27;20865;-89
2024/04/12 04:21:48;;;;;;;28.00;17.23;;;13.70;99.90;;;;;;5231436;27;20260;-89
2024/04/12 04:24:14;;;;;;;29.60;17.50;;;13.70;99.90;;;;;;5236023;27;20260;-89
2024/04/12 04:26:44;;;;;;;24.23;16.17;;;13.60;99.90;;;;;;5230288;27;20351;-89
2024/04/12 04:29:09;;;;;;;27.93;16.87;;;13.70;99.90;;;;;;5231068;27;20253;-88
2024/04/12 04:31:49;;;;;;;28.50;16.97;;;13.70;99.90;;;;;;5236602;27;20300;-89
2024/04/12 04:34:18;;;;;;;31.40;16.87;;;13.70;99.90;;;;;;5233297;27;20248;-90
2024/04/12 04:36:49;;;;;;;23.80;15.40;;;13.70;99.90;;;;;;5234932;27;20323;-89
2024/04/12 04:39:15;;;;;;;26.33;15.43;;;13.70;99.90;;;;;;5232595;27;20248;-92
2024/04/12 04:41:48;;;;;;;24.47;15.83;;;13.70;99.90;;;;;;5233620;27;20801;-89
2024/04/12 04:44:15;;;;;;;28.27;16.23;;;13.70;99.90;;;;;;5227990;27;20245;-88
2024/04/12 04:46:45;;;;;;;24.70;14.87;;;13.70;99.90;;;;;;5234088;27;20252;-88
2024/04/12 04:49:12;;;;;;;19.70;13.97;;;13.80;99.90;;;;;;5232133;27;20248;-88
2024/04/12 04:51:45;;;;;;;23.33;14.87;;;13.70;99.90;;;;;;5233750;27;20297;-88
2024/04/12 04:54:13;;;;;;;24.97;15.07;;;13.70;99.90;;;;;;5226129;27;20287;-88
2024/04/12 04:56:42;;;;;;;27.07;14.67;;;13.70;99.90;;;;;;5231197;27;20740;-88
2024/04/12 04:59:09;;;;;;;21.50;14.50;;;13.70;99.90;;;;;;5221682;27;20284;-89
2024/04/12 05:01:37;;;;;;;23.37;14.97;;;13.70;99.90;;;;;;5230411;27;20741;-89
2024/04/12 05:04:03;;;;;;;22.63;14.40;;;13.80;99.90;;;;;;5233938;27;20249;-88
2024/04/12 05:06:33;;;;;;;28.20;15.07;;;13.70;99.90;;;;;;5235739;27;20822;-89
2024/04/12 05:09:03;;;;;;;25.30;15.23;;;13.70;99.90;;;;;;5232920;27;20245;-91
2024/04/12 05:11:31;;;;;;;26.80;16.33;;;13.70;99.90;;;;;;5236576;27;20794;-91
2024/04/12 05:13:58;;;;;;;20.60;13.43;;;13.80;99.90;;;;;;5238347;27;20308;-92
2024/04/12 05:16:26;;;;;;;23.30;14.10;;;13.80;99.90;;;;;;5236567;27;20256;-92
2024/04/12 05:18:53;;;;;;;21.60;13.93;;;13.80;99.90;;;;;;5237063;27;20247;-91
2024/04/12 05:21:23;;;;;;;22.13;12.87;;;13.80;99.90;;;;;;5253139;27;20659;-89
2024/04/12 05:23:51;;;;;;;22.20;13.20;;;13.80;99.90;;;;;;5236658;27;20253;-91
2024/04/12 05:26:23;;;;;;;24.63;13.80;;;13.70;99.90;;;;;;5249573;27;20350;-89
2024/04/12 05:28:49;;;;;;;19.20;13.23;;;13.80;99.90;;;;;;5253475;27;20307;-90
2024/04/12 05:31:19;;;;;;;22.07;12.67;;;13.70;99.90;;;;;;5246275;27;20617;-90
2024/04/12 05:33:45;;;;;;;22.60;13.63;;;13.80;99.90;;;;;;5246901;27;20600;-90
2024/04/12 05:36:16;;;;;;;22.20;12.87;;;13.80;99.90;;;;;;5252685;27;20294;-90
2024/04/12 05:38:47;;;;;;;23.60;13.80;;;13.80;99.90;;;;;;5233209;27;20292;-90
2024/04/12 05:41:16;;;;;;;22.43;13.40;;;13.80;99.90;;;;;;5241566;27;20353;-90
2024/04/12 05:43:44;;;;;;;18.77;12.43;;;13.90;99.90;;;;;;5244088;27;20300;-90
2024/04/12 05:46:13;;;;;;;21.77;12.20;;;13.80;99.90;;;;;;5256558;27;20727;-90
2024/04/12 05:48:39;;;;;;;24.53;13.93;;;13.80;99.90;;;;;;5244176;27;20292;-90
2024/04/12 05:51:11;;;;;;;21.13;12.77;;;13.80;99.90;;;;;;5241366;27;20802;-90
2024/04/12 05:53:38;;;;;;;20.93;12.80;;;13.90;99.90;;;;;;5235027;27;20332;-90
2024/04/12 05:56:25;;;;;;;19.47;13.03;;;13.80;99.90;;;;;;5234515;27;20241;-89
2024/04/12 05:58:56;;;;;;;21.00;12.30;;;13.90;99.90;;;;;;5230528;27;20319;-91
2024/04/12 06:01:29;;;;;;;19.73;12.60;;;13.90;99.90;;;;;;5227627;27;20252;-88
2024/04/12 06:03:55;;;;;;;19.37;12.40;;;13.90;99.90;;;;;;5228668;27;20257;-89
2024/04/12 06:06:24;;;;;;;21.03;12.20;;;13.80;99.90;;;;;;5226101;27;20248;-89
2024/04/12 06:08:52;;;;;;;16.83;11.90;;;13.80;99.90;;;;;;5226582;27;20244;-89
2024/04/12 06:11:21;;;;;;;20.50;12.83;;;13.80;99.90;;;;;;5230229;27;20252;-89
2024/04/12 06:13:53;;;;;;;19.57;11.87;;;13.80;99.90;;;;;;5233926;27;20284;-90
2024/04/12 06:16:24;;;;;;;20.60;12.57;;;13.90;99.90;;;;;;5220202;27;20620;-89
2024/04/12 06:18:50;;;;;;;19.97;12.77;;;13.80;99.90;;;;;;5231617;27;20292;-90
2024/04/12 06:21:19;;;;;;;19.50;12.77;;;13.80;99.90;;;;;;5229688;27;20365;-90
2024/04/12 06:36:55;;;;;;;19.23;12.30;;;13.90;99.90;;;;;;5826856;21;20371;-87
2024/04/12 06:39:26;;;;;;;18.03;11.67;;;13.90;99.90;;;;;;5270163;27;20349;-86
2024/04/12 06:41:54;;;;;;;19.00;11.90;;;13.90;99.90;;;;;;5263441;27;20274;-88
2024/04/12 06:44:20;;;;;;;18.27;12.23;;;13.90;99.90;;;;;;5273026;27;20248;-88
2024/04/12 06:46:51;;;;;;;18.13;12.20;;;14.00;99.90;;;;;;5272253;27;20298;-87
2024/04/12 06:49:19;;;;;;;18.10;11.80;;;14.00;99.90;;;;;;5264385;27;20247;-87
2024/04/12 07:10:27;;;;;;;21.00;12.10;;;14.10;99.90;;;;;;6695235;21;20233;-86
2024/04/12 07:12:55;;;;;;;19.47;11.97;;;14.10;99.90;;;;;;6695441;21;20582;-87
2024/04/12 07:15:24;;;;;;;16.73;11.77;;;14.10;99.90;;;;;;6694902;21;20265;-90
2024/04/12 07:17:50;;;;;;;16.33;11.37;;;14.10;99.90;;;;;;6692772;21;20265;-88
2024/04/12 07:20:27;;;;;;;15.53;11.60;;;14.10;99.90;;;;;;6693777;21;20226;-90
2024/04/12 07:22:53;;;;;;;18.77;11.73;;;14.10;99.90;;;;;;6693294;21;20230;-88
2024/04/12 07:25:23;;;;;;;19.17;11.83;;;14.10;99.90;;;;;;6693324;21;20720;-88
2024/04/12 07:27:53;;;;;;;15.07;10.90;;;14.10;99.90;;;;;;6692525;21;20262;-88
2024/04/12 07:30:23;;;;;;;15.83;10.47;;;14.10;99.90;;;;;;6693615;21;20530;-88
2024/04/12 07:32:50;;;;;;;19.53;11.53;;;14.20;99.90;;;;;;6694066;21;20722;-88
2024/04/12 07:35:26;;;;;;;17.83;10.57;;;14.10;99.90;;;;;;6693505;21;20800;-89
2024/04/12 07:37:54;;;;;;;14.80;9.93;;;14.10;99.90;;;;;;6693555;21;20463;-88
2024/04/12 07:40:24;;;;;;;18.43;10.40;;;14.10;99.90;;;;;;6693969;21;20223;-87
2024/04/12 07:42:53;;;;;;;14.17;10.47;;;14.00;99.90;;;;;;6694523;21;20231;-89
2024/04/12 07:45:23;;;;;;;19.07;11.27;;;13.90;99.90;;;;;;6693235;21;20219;-90
2024/04/12 07:47:53;;;;;;;15.90;10.13;;;13.90;99.90;;;;;;6693714;21;20253;-88
2024/04/12 07:50:28;;;;;;;17.43;11.13;;;13.80;99.90;;;;;;6692171;21;20222;-88
2024/04/12 07:52:55;;;;;;;19.57;11.10;;;13.90;99.90;;;;;;6693472;21;20235;-90
2024/04/12 07:55:26;;;;;;;15.83;10.93;;;13.80;99.90;;;;;;6693813;21;20331;-89
2024/04/12 07:57:55;;;;;;;18.43;11.43;;;13.80;99.90;;;;;;6693382;21;20282;-89
2024/04/12 08:00:35;;;;;;;16.80;11.10;;;13.80;99.90;;;;;;6694178;21;20538;-89
2024/04/12 08:03:06;;;;;;;19.30;11.50;;;13.80;99.90;;;;;;6692520;21;20655;-87
2024/04/12 08:05:49;;;;;;;19.53;11.27;;;13.80;99.90;;;;;;6687675;21;20219;-87
2024/04/12 08:08:15;;;;;;;15.87;10.13;;;13.80;99.90;;;;;;6685419;21;20230;-89
2024/04/12 08:10:44;;;;;;;17.73;11.03;;;13.80;99.90;;;;;;6684429;21;20325;-88
2024/04/12 08:13:23;;;;;;;14.57;9.67;;;13.80;99.90;;;;;;6684858;21;20270;-87
2024/04/12 08:15:52;;;;;;;17.20;10.60;;;13.80;99.90;;;;;;6685862;21;20219;-85
2024/04/12 08:18:20;;;;;;;16.27;10.30;;;13.90;99.90;;;;;;6685017;21;20642;-85
2024/04/12 08:20:49;;;;;;;17.50;10.17;;;13.90;99.90;;;;;;6683173;21;20315;-85
2024/04/12 08:23:17;;;;;;;19.33;9.63;;;13.90;99.90;;;;;;6684495;21;20694;-86
2024/04/12 08:25:48;;;;;;;15.23;9.80;;;14.00;99.90;;;;;;6685174;21;20226;-86
2024/04/12 08:28:17;;;;;;;15.50;10.20;;;14.00;99.90;;;;;;6683240;21;20666;-87
2024/04/12 08:31:05;;;;;;;16.70;10.20;;;14.10;99.90;;;;;;6681392;21;20967;-86
2024/04/12 08:33:32;;;;;;;14.87;9.63;;;14.10;99.90;;;;;;6682091;21;20793;-87
2024/04/12 08:36:02;;;;;;;13.97;9.83;;;14.10;99.90;;;;;;6682671;21;20219;-86
2024/04/12 08:38:28;;;;;;;18.27;10.80;;;14.20;99.90;;;;;;6682985;21;20324;-85
2024/04/12 08:41:01;;;;;;;15.47;10.07;;;14.20;99.90;;;;;;6682208;21;20234;-86
2024/04/12 08:43:41;;;;;;;14.60;9.87;;;14.20;99.90;;;;;;6684543;21;20231;-86
2024/04/12 08:46:21;;;;;;;18.83;10.43;;;14.20;99.90;;;;;;6684999;21;20265;-85
2024/04/12 08:48:47;;;;;;;16.20;10.43;;;14.30;99.90;;;;;;6685314;21;20694;-86
2024/04/12 08:51:22;;;;;;;18.20;11.40;;;14.20;99.90;;;;;;6686114;21;20223;-85
2024/04/12 08:53:55;;;;;;;16.07;10.90;;;14.30;99.90;;;;;;6686182;21;20226;-86
2024/04/12 08:56:28;;;;;;;16.10;10.80;;;14.30;99.90;;;;;;6686029;21;20324;-87
2024/04/12 08:59:05;;;;;;;18.07;11.73;;;14.30;99.90;;;;;;6685864;21;20681;-86
2024/04/12 09:01:35;;;;;;;16.07;12.03;;;14.30;99.90;;;;;;6685639;21;20290;-86
2024/04/12 09:04:04;;;;;;;16.70;10.80;;;14.30;99.90;;;;;;6685710;21;20302;-86
2024/04/12 09:06:35;;;;;;;15.87;11.07;;;14.30;99.90;;;;;;6685301;21;20231;-86
2024/04/12 09:09:01;;;;;;;17.33;11.63;;;14.30;99.90;;;;;;6685107;21;20717;-86
2024/04/12 09:11:32;;;;;;;14.97;10.07;;;14.40;99.90;;;;;;6683489;21;20223;-86
2024/04/12 09:14:09;;;;;;;16.47;10.47;;;14.40;99.90;;;;;;6681537;21;20235;-86
2024/04/12 09:16:44;;;;;;;13.43;9.77;;;14.40;99.90;;;;;;6682769;21;20234;-86
2024/04/12 09:19:13;;;;;;;17.27;10.17;;;14.50;99.90;;;;;;6681506;21;20334;-88
2024/04/12 09:21:58;;;;;;;16.40;9.20;;;14.50;99.90;;;;;;6684385;21;20650;-85
2024/04/12 09:24:31;;;;;;;15.97;10.57;;;14.60;99.90;;;;;;6682750;21;20876;-86
2024/04/12 09:27:09;;;;;;;15.47;9.87;;;14.60;99.90;;;;;;6681961;21;20282;-87
2024/04/12 09:29:43;;;;;;;13.17;9.43;;;14.80;99.90;;;;;;6682938;21;20223;-86
2024/04/12 09:34:58;;;;;;;13.47;9.67;;;15.20;99.90;;;;;;6687563;21;20253;-88
2024/04/12 09:37:38;;;;;;;12.40;9.13;;;15.40;99.90;;;;;;6682664;21;20222;-87
2024/04/12 09:40:24;;;;;;;12.53;8.27;;;15.50;99.90;;;;;;6682463;21;20682;-86
2024/04/12 09:45:52;;;;;;;13.40;9.47;;;15.60;99.90;;;;;;6680375;21;20269;-87
2024/04/12 10:38:47;;;;;;;7.70;5.90;;;17.00;99.90;;;;;;6579033;21;20572;-91
2024/04/12 10:41:16;;;;;;;8.87;6.20;;;17.20;99.90;;;;;;6576162;21;20225;-90
2024/04/12 10:43:46;;;;;;;7.07;5.93;;;17.20;99.90;;;;;;6577027;21;20237;-90
2024/04/12 10:46:15;;;;;;;8.30;5.93;;;17.30;99.90;;;;;;6577260;21;20221;-88
2024/04/12 10:48:42;;;;;;;8.50;6.37;;;17.30;99.90;;;;;;6577103;21;20532;-90
2024/04/12 10:51:16;;;;;;;6.73;5.47;;;17.30;99.90;;;;;;6576142;21;20221;-88
2024/04/12 10:53:43;;;;;;;7.30;5.47;;;17.30;99.90;;;;;;6576553;21;20286;-90
2024/04/12 10:56:18;;;;;;;8.60;5.50;;;17.40;99.90;;;;;;6577142;21;20252;-91
2024/04/12 10:58:51;;;;;;;8.50;5.80;;;17.50;99.90;;;;;;6575558;21;20371;-91
2024/04/12 11:01:22;;;;;;;7.13;4.90;;;17.60;99.90;;;;;;6574222;21;20224;-90
2024/04/12 11:03:56;;;;;;;8.10;5.17;;;17.60;99.90;;;;;;6574666;21;20312;-90
2024/04/12 11:06:33;;;;;;;6.40;5.00;;;17.70;99.90;;;;;;6574358;21;20271;-90
2024/04/12 11:09:00;;;;;;;6.90;5.10;;;17.80;99.90;;;;;;6573584;21;20805;-89
2024/04/12 11:11:33;;;;;;;6.70;5.43;;;18.00;99.90;;;;;;6576591;21;20311;-90
2024/04/12 11:14:00;;;;;;;6.53;4.93;;;18.10;99.90;;;;;;6577711;21;20271;-90
2024/04/12 11:33:04;;;;;;;7.43;5.43;;;18.30;99.90;;;;;;6579241;21;20327;-89
2024/04/12 11:35:34;;;;;;;9.33;5.07;;;18.50;99.90;;;;;;6575451;21;20226;-88
2024/04/12 11:38:13;;;;;;;7.27;5.07;;;18.80;99.90;;;;;;6550133;21;20353;-89
2024/04/12 11:40:41;;;;;;;7.27;4.97;;;18.90;99.90;;;;;;6522662;22;20717;-88
2024/04/12 11:43:09;;;;;;;10.67;5.47;;;19.00;99.90;;;;;;6525231;21;20248;-87
2024/04/12 11:45:41;;;;;;;6.20;5.27;;;19.00;99.90;;;;;;6526274;21;20711;-88
2024/04/12 11:48:14;;;;;;;7.37;5.20;;;19.00;99.90;;;;;;6525930;21;20223;-88
2024/04/12 11:50:42;;;;;;;9.00;5.13;;;19.00;99.90;;;;;;6525374;22;20338;-88
2024/04/12 11:53:13;;;;;;;7.40;4.70;;;19.10;99.90;;;;;;6526265;21;20235;-88
2024/04/12 11:55:39;;;;;;;6.33;5.30;;;19.10;99.90;;;;;;6525996;21;20257;-89
2024/04/12 11:58:08;;;;;;;6.00;4.53;;;19.10;99.90;;;;;;6526106;22;20568;-88
2024/04/12 12:00:37;;;;;;;6.60;4.90;;;19.10;99.90;;;;;;6526465;22;20269;-88
2024/04/12 12:03:06;;;;;;;5.67;4.67;;;19.10;99.90;;;;;;6527104;22;20295;-87
2024/04/12 12:05:37;;;;;;;8.30;5.00;;;19.20;99.90;;;;;;6525696;22;20710;-89
2024/04/12 12:08:12;;;;;;;7.77;4.77;;;19.20;99.90;;;;;;6530463;21;20228;-93
2024/04/12 12:10:41;;;;;;;8.47;4.43;;;19.30;99.90;;;;;;6579073;21;20572;-88
2024/04/12 12:13:10;;;;;;;5.77;4.53;;;19.30;99.90;;;;;;6579181;21;20231;-90
2024/04/12 12:15:36;;;;;;;7.60;4.70;;;19.30;99.90;;;;;;6579749;21;20266;-88
2024/04/12 12:18:07;;;;;;;6.90;5.07;;;19.40;99.90;;;;;;6578688;21;20236;-89
2024/04/12 12:20:33;;;;;;;6.70;4.33;;;19.50;99.90;;;;;;6579463;21;20223;-91
2024/04/12 12:23:01;;;;;;;10.17;5.50;;;19.60;99.90;;;;;;6578383;21;20307;-89
2024/04/12 12:25:27;;;;;;;5.37;4.30;;;19.70;99.90;;;;;;6578236;21;20530;-89
2024/04/12 12:27:58;;;;;;;6.63;5.07;;;19.70;99.90;;;;;;6578651;21;20258;-90
2024/04/12 12:30:24;;;;;;;5.57;4.63;;;19.80;99.90;;;;;;6578948;21;20224;-88
2024/04/12 12:32:53;;;;;;;7.60;4.80;;;19.70;99.90;;;;;;6578551;21;20603;-89
2024/04/12 12:35:21;;;;;;;5.87;4.60;;;19.80;99.90;;;;;;6578150;21;20270;-89
2024/04/12 12:37:50;;;;;;;7.97;4.10;;;19.80;99.90;;;;;;6578479;21;20632;-89
2024/04/12 12:40:18;;;;;;;6.43;4.57;;;19.90;99.90;;;;;;6579187;21;20232;-88
2024/04/12 12:42:51;;;;;;;6.60;4.43;;;20.10;99.90;;;;;;6578215;21;20224;-88
2024/04/12 12:45:20;;;;;;;5.73;4.20;;;20.20;99.90;;;;;;6577921;21;20230;-88
2024/04/12 12:47:49;;;;;;;5.43;4.33;;;20.20;99.90;;;;;;6577949;21;20258;-88
2024/04/12 12:50:23;;;;;;;8.17;4.43;;;20.30;99.90;;;;;;6578309;21;20224;-87
2024/04/12 12:52:53;;;;;;;6.87;4.67;;;20.00;99.90;;;;;;6579240;21;20274;-88
2024/04/12 12:55:23;;;;;;;5.17;4.57;;;20.00;99.90;;;;;;6579648;21;20227;-88
2024/04/12 12:58:08;;;;;;;5.53;4.30;;;20.10;99.90;;;;;;6579588;21;20234;-88
2024/04/12 13:00:40;;;;;;;7.33;4.70;;;20.10;99.90;;;;;;6579514;21;20314;-88
2024/04/12 13:03:11;;;;;;;6.57;4.83;;;20.00;99.90;;;;;;6578488;21;20240;-88
2024/04/12 13:05:38;;;;;;;6.90;4.50;;;20.00;99.90;;;;;;6576533;21;20279;-88
2024/04/12 13:08:07;;;;;;;7.57;5.10;;;19.90;99.90;;;;;;6578074;21;20333;-87
2024/04/12 13:10:33;;;;;;;8.53;4.93;;;19.80;99.90;;;;;;6577002;21;20224;-87
2024/04/12 13:13:04;;;;;;;6.30;4.63;;;19.80;99.90;;;;;;6577320;21;20299;-90
2024/04/12 13:15:30;;;;;;;6.03;4.67;;;19.90;99.90;;;;;;6577440;21;20715;-84
2024/04/12 13:18:02;;;;;;;5.27;4.57;;;19.80;99.90;;;;;;6581271;21;20228;-84
2024/04/12 13:20:35;;;;;;;9.77;4.67;;;19.80;99.90;;;;;;6581446;21;20223;-84
2024/04/12 13:23:05;;;;;;;6.07;4.93;;;19.90;99.90;;;;;;6581072;21;20232;-83
2024/04/12 13:25:31;;;;;;;7.97;4.50;;;20.20;99.90;;;;;;6581071;21;20239;-85
2024/04/12 13:27:59;;;;;;;6.57;3.93;;;20.50;99.90;;;;;;6580486;21;20264;-84
2024/04/12 13:30:25;;;;;;;5.50;4.10;;;20.70;99.90;;;;;;6581517;21;20221;-84
2024/04/12 13:32:58;;;;;;;5.10;3.40;;;20.70;99.90;;;;;;6580815;21;20225;-84
2024/04/12 13:35:28;;;;;;;7.07;3.83;;;20.70;99.90;;;;;;6580192;21;20240;-84
2024/04/12 13:37:56;;;;;;;5.93;3.57;;;20.60;99.90;;;;;;6580592;21;20351;-84
2024/04/12 13:40:25;;;;;;;6.10;3.57;;;20.80;99.90;;;;;;6580537;21;20270;-84
2024/04/12 13:42:54;;;;;;;5.43;3.20;;;20.90;99.90;;;;;;6580411;21;20237;-85
2024/04/12 13:50:58;;;;;;;3.00;2.50;;;20.90;99.90;;;;;;6584050;21;20260;-84
2024/04/12 13:53:36;;;;;;;5.63;2.50;;;21.10;99.90;;;;;;6579771;21;20673;-85
2024/04/12 13:58:53;;;;;;;4.40;2.10;;;21.90;99.90;;;;;;6579670;21;20322;-85
2024/04/12 14:01:24;;;;;;;5.87;1.83;;;22.00;99.90;;;;;;6580205;21;20260;-84
2024/04/12 14:03:54;;;;;;;4.07;1.97;;;22.10;99.90;;;;;;6580765;21;20228;-85
2024/04/12 14:06:25;;;;;;;2.73;2.00;;;22.10;99.90;;;;;;6579302;21;20293;-86
2024/04/12 14:08:52;;;;;;;3.37;2.20;;;21.80;99.90;;;;;;6580196;21;20242;-84
2024/04/12 14:11:21;;;;;;;5.87;1.70;;;21.40;99.90;;;;;;6580243;21;20237;-85
2024/04/12 14:13:47;;;;;;;4.20;1.77;;;21.50;99.90;;;;;;6581266;21;20221;-84
2024/04/12 14:16:16;;;;;;;3.53;2.13;;;21.80;99.90;;;;;;6579597;21;20280;-84
2024/04/12 14:18:43;;;;;;;3.77;2.03;;;22.20;99.90;;;;;;6579797;21;20222;-85
2024/04/12 14:21:15;;;;;;;4.33;2.00;;;22.00;99.90;;;;;;6580097;21;20237;-84
2024/04/12 14:23:44;;;;;;;3.20;2.03;;;21.80;99.90;;;;;;6580056;21;20275;-85
2024/04/12 14:26:13;;;;;;;3.13;1.67;;;21.60;99.90;;;;;;6580081;21;20236;-85
2024/04/12 14:28:40;;;;;;;2.37;1.70;;;21.30;99.90;;;;;;6580262;21;20267;-84
2024/04/12 14:31:09;;;;;;;2.30;1.67;;;21.20;99.90;;;;;;6580298;21;20229;-84
2024/04/12 14:33:35;;;;;;;2.50;1.53;;;21.20;99.90;;;;;;6580578;21;20313;-85
2024/04/12 14:36:04;;;;;;;2.97;1.37;;;21.10;99.90;;;;;;6579720;21;20248;-84
2024/04/12 14:38:30;;;;;;;2.63;1.63;;;21.20;99.90;;;;;;6578832;21;20225;-84
2024/04/12 14:41:07;;;;;;;4.17;1.60;;;21.50;99.90;;;;;;6579341;21;20275;-84